Time;durP1;ratioP1;P1;durP2;ratioP2;P2;SDS_P1;SDS_P2;PMS_P1;PMS_P2;Temp;Humidity;BMP_temperature;BMP_pressure;BME280_temperature;BME280_humidity;BME280_pressure;Samples;Min_cycle;Max_cycle;Signal;HPM_P1;HPM_P2
2022/02/23 00:00:41;;;;;;;19.23;2.47;;;;;;;;;;5012488;28;20041;-41
2022/02/23 00:03:09;;;;;;;13.85;2.78;;;;;;;;;;5029218;28;20402;-42
2022/02/23 00:05:36;;;;;;;19.33;2.67;;;;;;;;;;5029658;28;20478;-43
2022/02/23 00:08:03;;;;;;;15.90;2.83;;;;;;;;;;5030631;28;20030;-41
2022/02/23 00:10:30;;;;;;;17.55;2.30;;;;;;;;;;5029812;28;20051;-40
2022/02/23 00:12:57;;;;;;;13.80;2.33;;;;;;;;;;5033587;28;20070;-38
2022/02/23 00:15:24;;;;;;;14.25;2.50;;;;;;;;;;5039385;28;20041;-39
2022/02/23 00:17:53;;;;;;;24.58;2.83;;;;;;;;;;5036063;28;20489;-38
2022/02/23 00:20:20;;;;;;;16.00;2.80;;;;;;;;;;5038164;28;20032;-38
2022/02/23 00:22:47;;;;;;;20.15;2.83;;;;;;;;;;5029186;28;20033;-40
2022/02/23 00:25:14;;;;;;;11.88;2.30;;;;;;;;;;5029333;28;20025;-39
2022/02/23 00:27:41;;;;;;;11.10;1.77;;;;;;;;;;5028709;28;20037;-39
2022/02/23 00:30:08;;;;;;;19.42;3.38;;;;;;;;;;5029352;28;20433;-38
2022/02/23 00:32:35;;;;;;;15.82;2.60;;;;;;;;;;5028676;28;20099;-38
2022/02/23 00:35:02;;;;;;;15.60;2.40;;;;;;;;;;5029017;28;20116;-40
2022/02/23 00:37:30;;;;;;;13.85;3.00;;;;;;;;;;5029382;28;20061;-39
2022/02/23 00:39:57;;;;;;;12.80;2.30;;;;;;;;;;5027180;28;20045;-37
2022/02/23 00:42:24;;;;;;;23.35;2.97;;;;;;;;;;5039673;28;20594;-42
2022/02/23 00:44:51;;;;;;;24.17;4.00;;;;;;;;;;5042627;28;20095;-42
2022/02/23 00:47:18;;;;;;;26.65;4.75;;;;;;;;;;5041537;28;20051;-41
2022/02/23 00:49:45;;;;;;;23.35;4.40;;;;;;;;;;5040959;28;20017;-41
2022/02/23 00:52:12;;;;;;;21.63;4.25;;;;;;;;;;5041137;28;20033;-43
2022/02/23 00:54:39;;;;;;;14.43;3.88;;;;;;;;;;5042418;28;20378;-42
2022/02/23 00:57:06;;;;;;;18.23;3.50;;;;;;;;;;5046357;28;20063;-41
2022/02/23 00:59:33;;;;;;;20.70;3.97;;;;;;;;;;5046605;28;20025;-43
2022/02/23 01:02:00;;;;;;;27.75;5.50;;;;;;;;;;5032612;28;20064;-43
2022/02/23 01:04:27;;;;;;;21.77;5.25;;;;;;;;;;5039584;28;20509;-41
2022/02/23 01:06:54;;;;;;;29.45;4.78;;;;;;;;;;5036809;28;20496;-41
2022/02/23 01:09:21;;;;;;;21.50;4.25;;;;;;;;;;5048390;28;20029;-42
2022/02/23 01:11:48;;;;;;;22.10;4.47;;;;;;;;;;5042141;28;20025;-41
2022/02/23 01:14:15;;;;;;;22.20;5.35;;;;;;;;;;5043885;28;20055;-42
2022/02/23 01:16:42;;;;;;;19.60;5.15;;;;;;;;;;5040161;28;20030;-42
2022/02/23 01:19:10;;;;;;;26.10;6.28;;;;;;;;;;5042631;28;20028;-42
2022/02/23 01:21:37;;;;;;;27.00;7.53;;;;;;;;;;5041133;28;20030;-41
2022/02/23 01:24:04;;;;;;;33.42;10.55;;;;;;;;;;5039267;28;20056;-42
2022/02/23 01:26:31;;;;;;;36.55;11.32;;;;;;;;;;5051336;28;20029;-42
2022/02/23 01:28:58;;;;;;;36.78;11.88;;;;;;;;;;5034518;28;20037;-41
2022/02/23 01:31:25;;;;;;;37.03;12.77;;;;;;;;;;5032237;28;20029;-42
2022/02/23 01:33:52;;;;;;;45.95;14.88;;;;;;;;;;5032721;28;20112;-42
2022/02/23 01:36:19;;;;;;;49.03;14.15;;;;;;;;;;5032651;28;20025;-41
2022/02/23 01:38:46;;;;;;;45.08;14.23;;;;;;;;;;5032507;28;20022;-41
2022/02/23 01:41:17;;;;;;;36.25;14.40;;;;;;;;;;5032402;28;20029;-41
2022/02/23 01:43:45;;;;;;;54.70;15.02;;;;;;;;;;5033448;28;20115;-42
2022/02/23 01:46:12;;;;;;;43.47;13.82;;;;;;;;;;5032844;28;20029;-41
2022/02/23 01:48:39;;;;;;;44.58;14.68;;;;;;;;;;5033380;28;20021;-41
2022/02/23 01:51:06;;;;;;;47.92;15.55;;;;;;;;;;5015825;28;20399;-41
2022/02/23 01:53:33;;;;;;;56.80;16.08;;;;;;;;;;5031686;28;20029;-41
2022/02/23 01:56:00;;;;;;;41.28;14.57;;;;;;;;;;5033514;28;20033;-41
2022/02/23 01:58:27;;;;;;;41.67;14.05;;;;;;;;;;5039415;28;20032;-41
2022/02/23 02:00:56;;;;;;;38.53;14.43;;;;;;;;;;5041097;28;20025;-41
2022/02/23 02:03:23;;;;;;;36.53;13.52;;;;;;;;;;5042726;28;20124;-42
2022/02/23 02:05:50;;;;;;;51.08;15.15;;;;;;;;;;5044125;28;20033;-42
2022/02/23 02:08:17;;;;;;;36.47;13.52;;;;;;;;;;5045641;28;20482;-43
2022/02/23 02:10:44;;;;;;;49.50;13.52;;;;;;;;;;5031805;28;20463;-42
2022/02/23 02:13:11;;;;;;;41.67;13.13;;;;;;;;;;5016357;28;20471;-46
2022/02/23 02:15:38;;;;;;;41.42;13.75;;;;;;;;;;5033161;28;20029;-41
2022/02/23 02:18:06;;;;;;;39.85;13.32;;;;;;;;;;5030905;28;20031;-39
2022/02/23 02:20:33;;;;;;;35.13;12.75;;;;;;;;;;5027830;28;20033;-42
2022/02/23 02:23:00;;;;;;;39.67;12.93;;;;;;;;;;5036962;28;20041;-41
2022/02/23 02:25:27;;;;;;;38.67;12.73;;;;;;;;;;5050166;28;20033;-42
2022/02/23 02:27:54;;;;;;;38.83;12.65;;;;;;;;;;5052209;28;20079;-42
2022/02/23 02:30:21;;;;;;;34.00;12.85;;;;;;;;;;5050723;28;20028;-36
2022/02/23 02:32:48;;;;;;;32.88;11.82;;;;;;;;;;5051130;28;20440;-41
2022/02/23 02:35:17;;;;;;;32.92;11.13;;;;;;;;;;5051829;28;20097;-41
2022/02/23 02:37:44;;;;;;;33.90;11.88;;;;;;;;;;5050802;28;20040;-42
2022/02/23 02:40:12;;;;;;;35.97;10.40;;;;;;;;;;5051475;28;20017;-42
2022/02/23 02:42:39;;;;;;;35.70;10.48;;;;;;;;;;5051402;28;20140;-42
2022/02/23 02:45:06;;;;;;;30.85;9.98;;;;;;;;;;5044049;28;20075;-38
2022/02/23 02:47:33;;;;;;;26.17;9.48;;;;;;;;;;5050795;28;20387;-41
2022/02/23 02:50:00;;;;;;;32.47;9.80;;;;;;;;;;5050582;28;20644;-42
2022/02/23 02:52:28;;;;;;;23.73;8.52;;;;;;;;;;5049512;28;20025;-41
2022/02/23 02:54:55;;;;;;;22.63;8.38;;;;;;;;;;5051099;28;20033;-38
2022/02/23 02:57:22;;;;;;;26.58;8.60;;;;;;;;;;5049119;28;20033;-40
2022/02/23 02:59:49;;;;;;;27.73;8.57;;;;;;;;;;5051155;28;20029;-40
2022/02/23 03:02:16;;;;;;;21.27;7.63;;;;;;;;;;5051288;28;20040;-41
2022/02/23 03:04:43;;;;;;;30.50;8.18;;;;;;;;;;5050728;28;20616;-40
2022/02/23 03:07:10;;;;;;;33.50;7.55;;;;;;;;;;5051420;28;20036;-39
2022/02/23 03:09:37;;;;;;;21.80;6.55;;;;;;;;;;5051528;28;20025;-38
2022/02/23 03:12:04;;;;;;;24.20;7.38;;;;;;;;;;5051137;28;20108;-38
2022/02/23 03:14:31;;;;;;;31.67;7.30;;;;;;;;;;5033903;28;20029;-38
2022/02/23 03:16:58;;;;;;;22.70;6.95;;;;;;;;;;5050905;28;20075;-41
2022/02/23 03:19:25;;;;;;;22.50;6.60;;;;;;;;;;5051480;28;20035;-38
2022/02/23 03:21:52;;;;;;;20.27;7.20;;;;;;;;;;5051094;28;20037;-38
2022/02/23 03:24:21;;;;;;;24.77;6.45;;;;;;;;;;5051117;28;20490;-38
2022/02/23 03:26:48;;;;;;;21.17;6.57;;;;;;;;;;5051717;28;20100;-38
2022/02/23 03:29:16;;;;;;;22.40;6.07;;;;;;;;;;5050574;28;20025;-38
2022/02/23 03:31:43;;;;;;;24.38;6.68;;;;;;;;;;5051610;28;20114;-38
2022/02/23 03:34:09;;;;;;;18.77;6.30;;;;;;;;;;5050606;28;20029;-35
2022/02/23 03:36:36;;;;;;;22.77;6.20;;;;;;;;;;5051319;28;20037;-39
2022/02/23 03:39:04;;;;;;;20.42;6.85;;;;;;;;;;5051098;28;20037;-41
2022/02/23 03:41:31;;;;;;;28.67;6.20;;;;;;;;;;5051086;28;20024;-37
2022/02/23 03:43:58;;;;;;;22.33;5.80;;;;;;;;;;5050483;28;20075;-39
2022/02/23 03:46:25;;;;;;;21.50;6.25;;;;;;;;;;5051066;28;20028;-38
2022/02/23 03:48:52;;;;;;;25.30;5.88;;;;;;;;;;5050912;28;20025;-35
2022/02/23 03:51:19;;;;;;;17.98;5.30;;;;;;;;;;5051208;28;20140;-39
2022/02/23 03:53:46;;;;;;;15.70;5.25;;;;;;;;;;5050475;28;20060;-38
2022/02/23 03:58:58;;;;;;;19.70;5.35;;;;;;;;;;5050746;28;20094;-38
2022/02/23 04:01:25;;;;;;;19.55;4.90;;;;;;;;;;5051237;28;20053;-39
2022/02/23 04:03:52;;;;;;;20.20;5.88;;;;;;;;;;5051202;28;20493;-35
2022/02/23 04:06:19;;;;;;;15.00;5.13;;;;;;;;;;5050431;28;20106;-35
2022/02/23 04:08:46;;;;;;;14.77;5.05;;;;;;;;;;5050696;28;20398;-38
2022/02/23 04:11:13;;;;;;;15.57;5.07;;;;;;;;;;5050398;28;20036;-37
2022/02/23 04:13:40;;;;;;;17.63;5.00;;;;;;;;;;5051219;28;20709;-35
2022/02/23 04:16:07;;;;;;;16.80;5.45;;;;;;;;;;5053067;28;20017;-39
2022/02/23 04:18:34;;;;;;;16.20;4.32;;;;;;;;;;5054725;28;20078;-37
2022/02/23 04:21:01;;;;;;;14.13;4.65;;;;;;;;;;5054050;28;20021;-37
2022/02/23 04:23:28;;;;;;;13.13;4.25;;;;;;;;;;5054882;28;20024;-37
2022/02/23 04:25:55;;;;;;;15.20;4.18;;;;;;;;;;5054123;28;20087;-37
2022/02/23 04:28:25;;;;;;;9.82;3.92;;;;;;;;;;5054630;28;20029;-34
2022/02/23 04:30:52;;;;;;;13.38;3.88;;;;;;;;;;5053998;28;20390;-37
2022/02/23 04:33:19;;;;;;;15.25;3.75;;;;;;;;;;5054326;28;20099;-37
2022/02/23 04:35:47;;;;;;;13.73;3.65;;;;;;;;;;5054158;28;20029;-37
2022/02/23 04:38:15;;;;;;;14.23;3.88;;;;;;;;;;5054259;28;20075;-37
2022/02/23 04:40:43;;;;;;;14.85;3.55;;;;;;;;;;5053653;28;20139;-37
2022/02/23 04:43:10;;;;;;;9.65;3.42;;;;;;;;;;5054754;28;20379;-37
2022/02/23 04:45:37;;;;;;;10.85;3.63;;;;;;;;;;5053917;28;20032;-40
2022/02/23 04:48:04;;;;;;;11.55;3.60;;;;;;;;;;5053957;28;20417;-37
2022/02/23 04:50:31;;;;;;;13.98;3.70;;;;;;;;;;5054362;28;20371;-37
2022/02/23 04:52:58;;;;;;;12.30;3.83;;;;;;;;;;5053569;28;20094;-36
2022/02/23 04:55:25;;;;;;;11.68;3.03;;;;;;;;;;5054757;28;20020;-36
2022/02/23 04:57:52;;;;;;;9.30;3.17;;;;;;;;;;5034954;28;20472;-37
2022/02/23 05:00:19;;;;;;;9.70;2.90;;;;;;;;;;5054192;28;20028;-40
2022/02/23 05:02:46;;;;;;;9.57;2.92;;;;;;;;;;5053733;28;20029;-37
2022/02/23 05:05:13;;;;;;;11.82;3.30;;;;;;;;;;5053653;28;20025;-37
2022/02/23 05:07:40;;;;;;;12.30;3.00;;;;;;;;;;5053778;28;20060;-38
2022/02/23 05:10:08;;;;;;;9.15;3.00;;;;;;;;;;5053201;28;20040;-37
2022/02/23 05:12:35;;;;;;;6.85;2.60;;;;;;;;;;5053858;28;20048;-37
2022/02/23 05:15:02;;;;;;;9.90;3.05;;;;;;;;;;5053972;28;20493;-37
2022/02/23 05:17:29;;;;;;;11.75;3.33;;;;;;;;;;5053143;28;20112;-37
2022/02/23 05:19:56;;;;;;;9.07;2.65;;;;;;;;;;5053714;28;20367;-40
2022/02/23 05:22:23;;;;;;;13.32;2.95;;;;;;;;;;5052653;28;20028;-37
2022/02/23 05:24:50;;;;;;;8.25;2.75;;;;;;;;;;5053844;28;20033;-37
2022/02/23 05:27:17;;;;;;;8.95;2.95;;;;;;;;;;5053176;28;20032;-37
2022/02/23 05:29:44;;;;;;;8.13;2.60;;;;;;;;;;5052435;28;20021;-37
2022/02/23 05:32:11;;;;;;;9.55;2.92;;;;;;;;;;5053792;28;20053;-34
2022/02/23 05:34:38;;;;;;;6.47;2.33;;;;;;;;;;5052609;28;20033;-37
2022/02/23 05:37:05;;;;;;;8.43;2.40;;;;;;;;;;5053744;28;20029;-36
2022/02/23 05:39:32;;;;;;;7.72;2.72;;;;;;;;;;5052969;28;20025;-34
2022/02/23 05:41:59;;;;;;;7.45;2.47;;;;;;;;;;5035016;28;20120;-34
2022/02/23 05:44:26;;;;;;;5.00;2.15;;;;;;;;;;5052830;28;20099;-38
2022/02/23 05:46:53;;;;;;;6.30;2.30;;;;;;;;;;5053341;28;20021;-37
2022/02/23 05:49:20;;;;;;;5.32;2.20;;;;;;;;;;5052548;28;20029;-39
2022/02/23 05:51:47;;;;;;;5.72;2.20;;;;;;;;;;5053267;28;20033;-37
2022/02/23 05:54:16;;;;;;;6.78;1.90;;;;;;;;;;5052785;28;20475;-36
2022/02/23 05:56:44;;;;;;;5.50;2.33;;;;;;;;;;5052986;28;20039;-34
2022/02/23 05:59:11;;;;;;;7.90;2.05;;;;;;;;;;5052300;28;20036;-36
2022/02/23 06:01:38;;;;;;;6.88;2.13;;;;;;;;;;5053982;28;20087;-35
2022/02/23 06:04:05;;;;;;;5.50;2.42;;;;;;;;;;5053958;28;20033;-34
2022/02/23 06:06:32;;;;;;;6.05;2.10;;;;;;;;;;5054169;28;20470;-37
2022/02/23 06:08:59;;;;;;;8.73;2.28;;;;;;;;;;5030209;22;20050;-41
2022/02/23 06:11:26;;;;;;;5.55;1.85;;;;;;;;;;4993313;28;20033;-47
2022/02/23 06:13:54;;;;;;;5.65;2.13;;;;;;;;;;4992921;28;20080;-40
2022/02/23 06:16:25;;;;;;;6.45;1.85;;;;;;;;;;4992582;28;20394;-41
2022/02/23 06:18:56;;;;;;;7.30;1.90;;;;;;;;;;4993004;28;20048;-40
2022/02/23 06:21:23;;;;;;;4.90;1.80;;;;;;;;;;4993290;28;20284;-41
2022/02/23 06:23:50;;;;;;;8.18;2.00;;;;;;;;;;4992979;28;20057;-40
2022/02/23 06:26:17;;;;;;;4.72;2.15;;;;;;;;;;4992640;28;20411;-42
2022/02/23 06:28:44;;;;;;;6.50;1.98;;;;;;;;;;4992870;28;20443;-42
2022/02/23 06:31:11;;;;;;;4.13;1.75;;;;;;;;;;4974726;28;20101;-40
2022/02/23 06:33:42;;;;;;;5.88;1.90;;;;;;;;;;4993358;28;20132;-40
2022/02/23 06:36:10;;;;;;;5.15;1.85;;;;;;;;;;4992551;28;20578;-39
2022/02/23 06:38:40;;;;;;;7.00;1.52;;;;;;;;;;4992253;28;20110;-40
2022/02/23 06:41:15;;;;;;;4.93;1.58;;;;;;;;;;4992635;28;20034;-40
2022/02/23 06:43:43;;;;;;;4.43;1.38;;;;;;;;;;4993203;28;20030;-40
2022/02/23 06:46:10;;;;;;;3.65;1.52;;;;;;;;;;4992120;28;20064;-42
2022/02/23 06:48:38;;;;;;;3.72;1.77;;;;;;;;;;4992704;28;20085;-40
2022/02/23 06:51:05;;;;;;;4.28;1.40;;;;;;;;;;4992351;28;20046;-42
2022/02/23 06:53:32;;;;;;;5.18;1.50;;;;;;;;;;4992819;28;20547;-41
2022/02/23 06:55:59;;;;;;;5.15;1.80;;;;;;;;;;4993169;28;20487;-40
2022/02/23 06:58:28;;;;;;;4.82;1.73;;;;;;;;;;4991995;28;20022;-40
2022/02/23 07:00:56;;;;;;;4.30;1.70;;;;;;;;;;4992795;28;20041;-43
2022/02/23 07:03:23;;;;;;;4.43;1.35;;;;;;;;;;4991828;28;20408;-40
2022/02/23 07:05:50;;;;;;;3.63;1.58;;;;;;;;;;4993034;28;20034;-40
2022/02/23 07:08:17;;;;;;;3.63;1.40;;;;;;;;;;4991495;28;20077;-40
2022/02/23 07:10:44;;;;;;;5.90;1.90;;;;;;;;;;4991760;28;20512;-40
2022/02/23 07:13:12;;;;;;;3.10;1.50;;;;;;;;;;4992317;28;20054;-43
2022/02/23 07:15:39;;;;;;;5.07;1.38;;;;;;;;;;4992032;28;20045;-40
2022/02/23 07:18:06;;;;;;;4.53;1.42;;;;;;;;;;4991853;28;20034;-40
2022/02/23 07:20:33;;;;;;;3.95;1.52;;;;;;;;;;4991770;28;20041;-42
2022/02/23 07:23:00;;;;;;;3.33;1.10;;;;;;;;;;4992161;28;20404;-40
2022/02/23 07:25:28;;;;;;;5.15;1.73;;;;;;;;;;4992006;28;20556;-42
2022/02/23 07:27:55;;;;;;;3.70;1.23;;;;;;;;;;4974248;28;20404;-39
2022/02/23 07:30:22;;;;;;;2.67;1.40;;;;;;;;;;4991820;28;20038;-39
2022/02/23 07:32:50;;;;;;;2.65;1.10;;;;;;;;;;4992322;28;20093;-40
2022/02/23 07:35:17;;;;;;;4.43;1.30;;;;;;;;;;4991867;28;20112;-40
2022/02/23 07:37:45;;;;;;;4.30;1.52;;;;;;;;;;4992591;28;20038;-42
2022/02/23 07:40:18;;;;;;;3.17;1.30;;;;;;;;;;4991152;28;20053;-41
2022/02/23 07:42:45;;;;;;;2.20;1.30;;;;;;;;;;4992283;28;20089;-41
2022/02/23 07:45:12;;;;;;;3.33;1.20;;;;;;;;;;4991714;28;20105;-40
2022/02/23 07:47:40;;;;;;;4.03;1.20;;;;;;;;;;4991489;28;20062;-41
2022/02/23 07:50:11;;;;;;;2.10;0.98;;;;;;;;;;4991935;28;20030;-40
2022/02/23 07:52:38;;;;;;;5.28;1.10;;;;;;;;;;4995820;28;20034;-41
2022/02/23 07:55:06;;;;;;;2.70;1.35;;;;;;;;;;4995475;28;20030;-44
2022/02/23 07:57:33;;;;;;;2.53;1.20;;;;;;;;;;4996146;28;20034;-40
2022/02/23 08:00:00;;;;;;;3.03;1.20;;;;;;;;;;4995549;28;20026;-40
2022/02/23 08:02:33;;;;;;;3.15;0.98;;;;;;;;;;4996031;28;20110;-40
2022/02/23 08:05:00;;;;;;;2.15;1.10;;;;;;;;;;4995216;28;20057;-40
2022/02/23 08:07:28;;;;;;;1.80;0.90;;;;;;;;;;4996282;28;20089;-44
2022/02/23 08:09:55;;;;;;;3.55;1.30;;;;;;;;;;4994989;28;20078;-40
2022/02/23 08:12:23;;;;;;;3.17;1.50;;;;;;;;;;4995307;28;20472;-40
2022/02/23 08:14:52;;;;;;;3.42;0.93;;;;;;;;;;4978167;28;20567;-40
2022/02/23 08:20:06;;;;;;;3.47;1.13;;;;;;;;;;4995627;28;20451;-40
2022/02/23 08:22:33;;;;;;;1.73;0.80;;;;;;;;;;4995177;28;20694;-43
2022/02/23 08:25:00;;;;;;;3.25;1.38;;;;;;;;;;4995945;28;20034;-40
2022/02/23 08:27:30;;;;;;;3.13;0.90;;;;;;;;;;4994689;28;20376;-38
2022/02/23 08:29:57;;;;;;;2.45;0.90;;;;;;;;;;4995671;28;20038;-39
2022/02/23 08:32:25;;;;;;;2.30;1.00;;;;;;;;;;4994468;28;20041;-39
2022/02/23 08:34:52;;;;;;;3.08;1.15;;;;;;;;;;4995266;28;20122;-40
2022/02/23 08:37:20;;;;;;;3.08;1.10;;;;;;;;;;4994855;28;20026;-40
2022/02/23 08:39:48;;;;;;;4.40;0.95;;;;;;;;;;4977507;28;20460;-40
2022/02/23 08:42:16;;;;;;;4.95;1.15;;;;;;;;;;4994223;28;20041;-39
2022/02/23 08:44:43;;;;;;;3.22;1.00;;;;;;;;;;4995376;28;20038;-44
2022/02/23 08:47:10;;;;;;;1.90;0.98;;;;;;;;;;4994794;28;20030;-40
2022/02/23 08:49:37;;;;;;;3.00;1.10;;;;;;;;;;4994588;28;20033;-39
2022/02/23 08:52:04;;;;;;;1.85;0.85;;;;;;;;;;4994808;28;20033;-40
2022/02/23 08:54:31;;;;;;;4.00;0.98;;;;;;;;;;4961388;28;20088;-44
2022/02/23 08:56:58;;;;;;;3.83;1.20;;;;;;;;;;4994502;28;20027;-39
2022/02/23 08:59:25;;;;;;;1.63;0.95;;;;;;;;;;4994902;28;20387;-39
2022/02/23 09:01:52;;;;;;;2.88;1.00;;;;;;;;;;4993259;28;20480;-39
2022/02/23 09:04:19;;;;;;;4.05;1.00;;;;;;;;;;4994644;28;20022;-40
2022/02/23 09:06:47;;;;;;;4.07;0.98;;;;;;;;;;4994581;28;20514;-38
2022/02/23 09:09:14;;;;;;;4.03;1.00;;;;;;;;;;4994285;28;20082;-39
2022/02/23 09:11:44;;;;;;;2.67;1.10;;;;;;;;;;4994111;28;20065;-39
2022/02/23 09:14:11;;;;;;;3.60;1.02;;;;;;;;;;4994323;28;20038;-39
2022/02/23 09:16:38;;;;;;;3.65;1.00;;;;;;;;;;4976648;28;20040;-39
2022/02/23 09:19:06;;;;;;;2.67;1.10;;;;;;;;;;4994372;28;20031;-40
2022/02/23 09:21:33;;;;;;;1.73;1.00;;;;;;;;;;4995056;28;20113;-39
2022/02/23 09:24:00;;;;;;;2.55;1.05;;;;;;;;;;4993313;28;20035;-39
2022/02/23 09:26:28;;;;;;;2.38;0.90;;;;;;;;;;4993968;28;20027;-39
2022/02/23 09:28:55;;;;;;;2.65;1.00;;;;;;;;;;4994356;28;20077;-39
2022/02/23 09:31:22;;;;;;;2.08;1.00;;;;;;;;;;4994775;28;20084;-39
2022/02/23 09:33:51;;;;;;;3.35;0.80;;;;;;;;;;4993045;28;20038;-44
2022/02/23 09:36:18;;;;;;;2.50;0.90;;;;;;;;;;4993668;28;20121;-40
2022/02/23 09:38:45;;;;;;;4.00;1.27;;;;;;;;;;4993949;28;20391;-39
2022/02/23 09:41:16;;;;;;;2.17;0.90;;;;;;;;;;4976065;28;20436;-39
2022/02/23 09:43:46;;;;;;;2.85;1.13;;;;;;;;;;4992723;28;20042;-43
2022/02/23 09:46:18;;;;;;;3.55;1.10;;;;;;;;;;4994620;28;20022;-41
2022/02/23 09:48:45;;;;;;;2.90;0.88;;;;;;;;;;4993141;28;20121;-39
2022/02/23 09:51:12;;;;;;;2.28;1.08;;;;;;;;;;4994331;28;20026;-39
2022/02/23 09:53:45;;;;;;;3.47;1.00;;;;;;;;;;4993394;28;20040;-42
2022/02/23 09:56:14;;;;;;;2.40;0.90;;;;;;;;;;4994061;28;20030;-39
2022/02/23 09:58:41;;;;;;;1.77;0.80;;;;;;;;;;4993609;28;20033;-41
2022/02/23 10:01:09;;;;;;;3.55;0.98;;;;;;;;;;4992998;28;20037;-40
2022/02/23 10:03:38;;;;;;;4.57;1.10;;;;;;;;;;4993619;28;20042;-39
2022/02/23 10:06:06;;;;;;;3.40;1.20;;;;;;;;;;4993242;28;20095;-40
2022/02/23 10:08:34;;;;;;;3.10;0.90;;;;;;;;;;4993000;28;20046;-44
2022/02/23 10:11:02;;;;;;;2.28;0.95;;;;;;;;;;4993566;28;20045;-41
2022/02/23 10:13:29;;;;;;;2.90;0.85;;;;;;;;;;4993134;28;20092;-40
2022/02/23 10:15:58;;;;;;;4.32;1.25;;;;;;;;;;4993088;28;20026;-39
2022/02/23 10:18:28;;;;;;;1.38;0.70;;;;;;;;;;4993110;28;20031;-40
2022/02/23 10:20:55;;;;;;;2.45;0.77;;;;;;;;;;4975920;28;20408;-41
2022/02/23 10:23:23;;;;;;;2.33;0.93;;;;;;;;;;4993028;28;20038;-44
2022/02/23 10:25:53;;;;;;;2.45;1.00;;;;;;;;;;4992961;28;20026;-40
2022/02/23 10:28:23;;;;;;;1.95;0.70;;;;;;;;;;4992850;28;20515;-40
2022/02/23 10:30:52;;;;;;;3.00;0.98;;;;;;;;;;4992584;28;20034;-39
2022/02/23 10:33:22;;;;;;;2.05;0.90;;;;;;;;;;4992684;28;20491;-40
2022/02/23 10:35:52;;;;;;;2.15;0.80;;;;;;;;;;4992544;28;20661;-40
2022/02/23 10:38:20;;;;;;;1.92;0.70;;;;;;;;;;4993218;28;20030;-39
2022/02/23 10:40:47;;;;;;;3.58;1.10;;;;;;;;;;4992079;28;20023;-39
2022/02/23 10:43:26;;;;;;;4.28;1.10;;;;;;;;;;4993194;28;20058;-39
2022/02/23 10:46:01;;;;;;;2.58;0.82;;;;;;;;;;4992334;28;20153;-40
2022/02/23 10:48:44;;;;;;;2.60;0.82;;;;;;;;;;4992705;28;20435;-40
2022/02/23 10:51:15;;;;;;;3.75;1.02;;;;;;;;;;4992393;28;20030;-40
2022/02/23 10:53:42;;;;;;;5.25;1.00;;;;;;;;;;4992954;28;20030;-40
2022/02/23 10:56:28;;;;;;;2.47;0.95;;;;;;;;;;4992660;28;20038;-41
2022/02/23 10:59:03;;;;;;;2.22;0.80;;;;;;;;;;4992102;28;20091;-39
2022/02/23 11:01:30;;;;;;;2.92;0.88;;;;;;;;;;4992777;28;20138;-41
2022/02/23 11:03:58;;;;;;;2.22;0.80;;;;;;;;;;4992242;28;20034;-41
2022/02/23 11:06:25;;;;;;;4.47;1.10;;;;;;;;;;4991875;28;20038;-44
2022/02/23 11:08:53;;;;;;;5.10;0.80;;;;;;;;;;4991909;28;20046;-44
2022/02/23 11:11:21;;;;;;;3.05;0.80;;;;;;;;;;4991838;28;20069;-40
2022/02/23 11:13:49;;;;;;;2.15;1.08;;;;;;;;;;4992171;28;20043;-41
2022/02/23 11:16:17;;;;;;;11.75;1.15;;;;;;;;;;4992358;28;20030;-41
2022/02/23 11:18:45;;;;;;;9.32;1.30;;;;;;;;;;4991928;28;20476;-40
2022/02/23 11:21:13;;;;;;;14.18;1.20;;;;;;;;;;4992703;28;20507;-41
2022/02/23 11:23:41;;;;;;;10.13;1.13;;;;;;;;;;4991429;28;20037;-43
2022/02/23 11:26:12;;;;;;;5.80;0.93;;;;;;;;;;4992115;28;20066;-40
2022/02/23 11:28:45;;;;;;;7.35;1.05;;;;;;;;;;4991200;28;20045;-43
2022/02/23 11:31:13;;;;;;;7.30;1.23;;;;;;;;;;4992420;28;20030;-44
2022/02/23 11:34:02;;;;;;;4.25;1.02;;;;;;;;;;4992279;28;20030;-46
2022/02/23 11:36:34;;;;;;;6.90;1.20;;;;;;;;;;4991789;28;20539;-40
2022/02/23 11:39:06;;;;;;;12.85;1.58;;;;;;;;;;4991809;28;20392;-43
2022/02/23 11:41:34;;;;;;;8.88;1.40;;;;;;;;;;4991724;28;20022;-45
2022/02/23 11:44:15;;;;;;;7.95;1.38;;;;;;;;;;4997676;28;20666;-44
2022/02/23 11:46:51;;;;;;;7.60;1.13;;;;;;;;;;4993951;28;20149;-43
2022/02/23 11:49:19;;;;;;;11.15;1.60;;;;;;;;;;5011106;28;20030;-44
2022/02/23 11:51:47;;;;;;;10.68;1.48;;;;;;;;;;4997643;28;20025;-44
2022/02/23 11:54:15;;;;;;;11.02;1.75;;;;;;;;;;5010975;28;20068;-44
2022/02/23 11:56:49;;;;;;;14.10;1.77;;;;;;;;;;5010972;28;20030;-44
2022/02/23 11:59:34;;;;;;;11.27;1.55;;;;;;;;;;5011399;28;20029;-42
2022/02/23 12:02:01;;;;;;;6.20;1.50;;;;;;;;;;5010600;28;20030;-43
2022/02/23 12:04:46;;;;;;;12.82;1.50;;;;;;;;;;5011314;28;20110;-44
2022/02/23 12:07:14;;;;;;;17.85;1.65;;;;;;;;;;5010217;28;20030;-46
2022/02/23 12:09:45;;;;;;;11.00;1.63;;;;;;;;;;5010221;28;20545;-42
2022/02/23 12:12:32;;;;;;;10.95;1.52;;;;;;;;;;5010478;28;20025;-42
2022/02/23 12:15:02;;;;;;;12.63;1.75;;;;;;;;;;5010833;28;20466;-42
2022/02/23 12:17:44;;;;;;;25.40;1.70;;;;;;;;;;5010837;28;20034;-42
2022/02/23 12:20:48;;;;;;;23.40;1.95;;;;;;;;;;4993584;28;20088;-43
2022/02/23 12:23:17;;;;;;;13.48;1.73;;;;;;;;;;4950724;29;20510;-43
2022/02/23 12:25:51;;;;;;;66.38;3.67;;;;;;;;;;4999588;28;20466;-44
2022/02/23 12:28:20;;;;;;;19.98;2.35;;;;;;;;;;4993585;28;20478;-43
2022/02/23 12:30:51;;;;;;;12.60;1.75;;;;;;;;;;5010867;28;20475;-43
2022/02/23 12:33:18;;;;;;;17.77;1.90;;;;;;;;;;5010387;28;20030;-38
2022/02/23 12:35:48;;;;;;;13.57;1.98;;;;;;;;;;5005002;28;20113;-45
2022/02/23 12:38:17;;;;;;;11.73;1.75;;;;;;;;;;5014271;28;20033;-51
2022/02/23 12:40:45;;;;;;;17.60;1.77;;;;;;;;;;5013918;28;20029;-45
2022/02/23 12:43:12;;;;;;;15.27;1.80;;;;;;;;;;5013295;28;20038;-45
2022/02/23 12:45:49;;;;;;;14.05;1.58;;;;;;;;;;5012879;28;20026;-54
2022/02/23 12:48:16;;;;;;;20.30;2.25;;;;;;;;;;5012884;28;20062;-55
2022/02/23 12:50:43;;;;;;;17.75;2.05;;;;;;;;;;5013524;28;20440;-54
2022/02/23 12:53:10;;;;;;;12.60;1.77;;;;;;;;;;5015822;28;20033;-48
2022/02/23 12:55:37;;;;;;;10.02;1.60;;;;;;;;;;5022546;28;20022;-47
2022/02/23 12:58:06;;;;;;;15.73;1.75;;;;;;;;;;5020728;28;20065;-46
2022/02/23 13:00:34;;;;;;;20.73;2.40;;;;;;;;;;5013652;28;20068;-45
2022/02/23 13:03:07;;;;;;;8.50;1.63;;;;;;;;;;5029286;28;20558;-48
2022/02/23 13:05:41;;;;;;;23.08;1.80;;;;;;;;;;5032979;28;20029;-43
2022/02/23 13:08:10;;;;;;;17.23;2.03;;;;;;;;;;5032404;28;20372;-40
2022/02/23 13:10:37;;;;;;;24.88;2.03;;;;;;;;;;5033109;28;20041;-44
2022/02/23 13:13:04;;;;;;;23.58;2.28;;;;;;;;;;5032797;28;20018;-45
2022/02/23 13:15:31;;;;;;;24.95;2.80;;;;;;;;;;5033269;28;20030;-45
2022/02/23 13:18:06;;;;;;;29.85;2.90;;;;;;;;;;5031896;28;20053;-41
2022/02/23 13:20:33;;;;;;;25.05;2.28;;;;;;;;;;5032786;28;20022;-43
2022/02/23 13:23:05;;;;;;;45.50;3.90;;;;;;;;;;5032989;28;20044;-48
2022/02/23 13:25:32;;;;;;;41.33;3.27;;;;;;;;;;5032434;28;20037;-49
2022/02/23 13:28:02;;;;;;;19.05;2.42;;;;;;;;;;5031991;28;20057;-47
2022/02/23 13:30:29;;;;;;;14.73;2.20;;;;;;;;;;5032543;28;20026;-52
2022/02/23 13:32:59;;;;;;;15.63;1.77;;;;;;;;;;5032692;28;20072;-45
2022/02/23 13:35:26;;;;;;;15.15;2.47;;;;;;;;;;5023827;28;20021;-46
2022/02/23 13:37:54;;;;;;;23.35;2.00;;;;;;;;;;5011160;28;20032;-44
2022/02/23 13:40:23;;;;;;;19.23;2.00;;;;;;;;;;4995301;28;20486;-41
2022/02/23 13:42:59;;;;;;;18.35;2.40;;;;;;;;;;5012054;28;20038;-51
2022/02/23 13:45:27;;;;;;;28.45;2.65;;;;;;;;;;5012677;28;20025;-46
2022/02/23 13:48:00;;;;;;;18.13;2.25;;;;;;;;;;5011000;28;20038;-44
2022/02/23 13:50:41;;;;;;;21.83;2.13;;;;;;;;;;5011929;28;20215;-47
2022/02/23 13:53:13;;;;;;;22.75;2.15;;;;;;;;;;5011832;28;20394;-43
2022/02/23 13:55:40;;;;;;;17.77;1.90;;;;;;;;;;5011370;28;20069;-51
2022/02/23 13:58:08;;;;;;;22.55;2.28;;;;;;;;;;5010774;28;20034;-49
2022/02/23 14:00:36;;;;;;;26.75;2.50;;;;;;;;;;5011436;28;20025;-48
2022/02/23 14:03:06;;;;;;;27.13;2.67;;;;;;;;;;5012553;28;20046;-47
2022/02/23 14:05:33;;;;;;;43.72;3.88;;;;;;;;;;5011895;28;20032;-52
2022/02/23 14:08:01;;;;;;;24.60;2.40;;;;;;;;;;5020938;28;20026;-56
2022/02/23 14:10:30;;;;;;;27.90;2.58;;;;;;;;;;5030575;28;20515;-55
2022/02/23 14:13:00;;;;;;;39.92;3.58;;;;;;;;;;5031891;28;20037;-50
2022/02/23 14:15:27;;;;;;;46.60;4.43;;;;;;;;;;5031409;28;20111;-48
2022/02/23 14:17:55;;;;;;;26.27;2.80;;;;;;;;;;5030891;28;20045;-47
2022/02/23 14:20:23;;;;;;;24.98;2.20;;;;;;;;;;5031085;28;20048;-51
2022/02/23 14:22:57;;;;;;;24.90;2.38;;;;;;;;;;5030256;28;20061;-45
2022/02/23 14:25:24;;;;;;;24.50;2.45;;;;;;;;;;5032317;28;20051;-47
2022/02/23 14:27:56;;;;;;;26.27;2.20;;;;;;;;;;5012313;28;20066;-45
2022/02/23 14:30:24;;;;;;;19.23;2.00;;;;;;;;;;5030575;28;20052;-55
2022/02/23 14:32:51;;;;;;;22.25;2.78;;;;;;;;;;5017674;28;20037;-59
2022/02/23 14:35:19;;;;;;;22.67;2.75;;;;;;;;;;5003083;28;20454;-54
2022/02/23 14:37:48;;;;;;;20.70;2.15;;;;;;;;;;5021662;28;20087;-54
2022/02/23 14:40:18;;;;;;;22.25;2.10;;;;;;;;;;5016780;28;20042;-53
2022/02/23 14:42:46;;;;;;;21.40;2.60;;;;;;;;;;5015473;28;20069;-59
2022/02/23 14:45:13;;;;;;;25.33;2.20;;;;;;;;;;5014340;28;20026;-59